createdAt,value
2018-09-14T00:00:29.213Z,50.48
2018-09-14T00:01:28.989Z,50.48
2018-09-14T00:02:28.967Z,50.96
2018-09-14T00:03:29.000Z,50.57
2018-09-14T00:04:29.085Z,51.03
2018-09-14T00:05:29.117Z,51.71
2018-09-14T00:06:29.171Z,51.71
2018-09-14T00:07:29.427Z,52.19
2018-09-14T00:08:29.162Z,52.39
2018-09-14T00:09:29.196Z,52.29
2018-09-14T00:10:29.274Z,52.39
2018-09-14T00:11:29.300Z,52.29
2018-09-14T00:13:29.318Z,52.29
2018-09-14T00:15:29.677Z,52.48
2018-09-14T00:16:29.463Z,52.67
2018-09-14T00:17:29.497Z,52.48
2018-09-14T00:18:29.526Z,52.48
2018-09-14T00:19:29.510Z,52.26
2018-09-14T00:20:29.592Z,52.36
2018-09-14T00:21:29.621Z,52.36
2018-09-14T00:22:29.908Z,52.45
2018-09-14T00:23:29.679Z,52.65
2018-09-14T00:24:29.714Z,52.75
2018-09-14T00:25:29.751Z,52.94
2018-09-14T00:26:29.782Z,52.84
2018-09-14T00:27:29.754Z,52.55
2018-09-14T00:28:29.837Z,52.55
2018-09-14T00:29:30.119Z,52.84
2018-09-14T00:30:29.907Z,53.23
2018-09-14T00:31:29.886Z,52.75
2018-09-14T00:32:29.969Z,53.13
2018-09-14T00:33:29.943Z,53.03
2018-09-14T00:34:30.029Z,52.84
2018-09-14T00:35:30.062Z,52.65
2018-09-14T00:36:30.340Z,52.55
2018-09-14T00:37:30.071Z,52.84
2018-09-14T00:38:30.106Z,52.53
2018-09-14T00:39:30.134Z,52.81
2018-09-14T00:40:30.217Z,52.53
2018-09-14T00:41:30.252Z,53.11
2018-09-14T00:42:30.287Z,53.39
2018-09-14T00:43:30.563Z,53.30
2018-09-14T00:44:30.301Z,53.30
2018-09-14T00:45:30.321Z,53.20
2018-09-14T00:46:30.407Z,53.30
2018-09-14T00:47:30.434Z,53.11
2018-09-14T00:48:30.481Z,53.01
2018-09-14T00:49:30.446Z,52.91
2018-09-14T00:50:30.788Z,53.11
2018-09-14T00:51:30.507Z,53.11
2018-09-14T00:52:30.544Z,53.20
2018-09-14T00:53:30.623Z,53.01
2018-09-14T00:54:30.605Z,53.11
2018-09-14T00:55:30.684Z,53.20
2018-09-14T00:56:30.664Z,53.01
2018-09-14T00:57:30.996Z,53.39
2018-09-14T00:58:30.781Z,53.39
2018-09-14T00:59:30.769Z,53.39
2018-09-14T01:00:30.840Z,53.30
2018-09-14T01:01:30.823Z,53.30
2018-09-14T01:02:30.910Z,53.30
2018-09-14T01:03:30.887Z,53.30
2018-09-14T01:04:31.218Z,53.30
2018-09-14T01:05:30.995Z,53.39
2018-09-14T01:06:31.331Z,53.20
2018-09-14T01:07:31.061Z,52.91
2018-09-14T01:08:31.090Z,53.20
2018-09-14T01:09:31.122Z,53.20
2018-09-14T01:10:31.105Z,53.39
2018-09-14T01:11:31.435Z,53.01
2018-09-14T01:12:31.173Z,53.39
2018-09-14T01:13:31.197Z,53.30
2018-09-14T01:14:31.277Z,53.39
2018-09-14T01:15:31.310Z,53.30
2018-09-14T01:16:31.336Z,53.27
2018-09-14T01:17:31.366Z,53.59
2018-09-14T01:18:31.648Z,53.39
2018-09-14T01:19:31.384Z,53.39
2018-09-14T01:20:31.416Z,53.30
2018-09-14T01:21:31.494Z,53.37
2018-09-14T01:22:31.472Z,53.56
2018-09-14T01:23:31.561Z,53.30
2018-09-14T01:24:31.534Z,54.05
2018-09-14T01:25:31.941Z,53.85
2018-09-14T01:26:31.597Z,53.85
2018-09-14T01:27:31.726Z,53.75
2018-09-14T01:28:31.658Z,53.85
2018-09-14T01:29:31.740Z,54.17
2018-09-14T01:30:31.722Z,53.27
2018-09-14T01:31:31.756Z,53.17
2018-09-14T01:32:32.161Z,53.37
2018-09-14T01:33:31.814Z,53.47
2018-09-14T01:34:31.898Z,53.56
2018-09-14T01:35:31.931Z,53.37
2018-09-14T01:36:31.954Z,53.37
2018-09-14T01:37:31.938Z,53.27
2018-09-14T01:38:32.026Z,53.85
2018-09-14T01:39:32.304Z,53.27
2018-09-14T01:40:32.034Z,53.56
2018-09-14T01:41:32.113Z,53.37
2018-09-14T01:42:32.098Z,53.95
2018-09-14T01:43:32.170Z,53.95
2018-09-14T01:44:32.202Z,53.95
2018-09-14T01:45:32.241Z,53.66
2018-09-14T01:46:32.564Z,53.75
2018-09-14T01:47:32.251Z,53.66
2018-09-14T01:48:32.331Z,53.85
2018-09-14T01:49:32.318Z,53.75
2018-09-14T01:50:32.392Z,53.75
2018-09-14T01:51:32.419Z,53.75
2018-09-14T01:52:32.398Z,54.05
2018-09-14T01:53:32.489Z,53.66
2018-09-14T01:54:32.510Z,53.95
2018-09-14T01:55:32.546Z,53.85
2018-09-14T01:56:32.527Z,54.05
2018-09-14T01:57:32.609Z,54.05
2018-09-14T01:58:32.597Z,54.14
2018-09-14T01:59:32.617Z,53.66
2018-09-14T02:00:32.699Z,53.66
2018-09-14T02:01:32.731Z,54.14
2018-09-14T02:02:32.713Z,53.85
2018-09-14T02:03:32.924Z,53.66
2018-09-14T02:04:32.781Z,54.05
2018-09-14T02:05:33.102Z,53.95
2018-09-14T02:06:32.828Z,54.14
2018-09-14T02:07:32.911Z,53.92
2018-09-14T02:08:32.891Z,53.83
2018-09-14T02:09:32.923Z,54.11
2018-09-14T02:10:33.007Z,54.21
2018-09-14T02:11:33.294Z,54.11
2018-09-14T02:12:33.063Z,54.02
2018-09-14T02:13:33.095Z,54.50
2018-09-14T02:14:33.137Z,53.83
2018-09-14T02:15:33.124Z,54.11
2018-09-14T02:16:33.194Z,54.40
2018-09-14T02:17:33.236Z,54.50
2018-09-14T02:18:33.505Z,54.50
2018-09-14T02:19:33.314Z,54.21
2018-09-14T02:20:33.317Z,54.50
2018-09-14T02:21:33.343Z,54.60
2018-09-14T02:22:33.373Z,54.50
2018-09-14T02:23:33.353Z,54.60
2018-09-14T02:24:33.430Z,54.21
2018-09-14T02:25:33.757Z,54.50
2018-09-14T02:26:33.447Z,54.69
2018-09-14T02:28:33.519Z,54.40
2018-09-14T02:29:33.590Z,54.50
2018-09-14T02:30:33.568Z,54.11
2018-09-14T02:31:33.645Z,54.60
2018-09-14T02:32:33.929Z,54.60
2018-09-14T02:33:33.757Z,54.50
2018-09-14T02:34:33.735Z,54.69
2018-09-14T02:35:33.776Z,54.60
2018-09-14T02:36:33.750Z,54.40
2018-09-14T02:37:33.834Z,54.60
2018-09-14T02:38:33.813Z,54.60
2018-09-14T02:39:34.188Z,54.21
2018-09-14T02:40:33.922Z,54.50
2018-09-14T02:41:33.953Z,54.21
2018-09-14T02:42:33.980Z,54.60
2018-09-14T02:43:34.009Z,54.60
2018-09-14T02:44:33.995Z,54.69
2018-09-14T02:45:34.025Z,54.40
2018-09-14T02:46:34.350Z,54.40
2018-09-14T02:47:34.079Z,54.40
2018-09-14T02:48:34.161Z,54.69
2018-09-14T02:49:34.192Z,54.31
2018-09-14T02:50:34.232Z,54.60
2018-09-14T02:51:34.258Z,54.60
2018-09-14T02:52:34.242Z,54.60
2018-09-14T02:53:34.613Z,54.40
2018-09-14T02:54:34.348Z,54.60
2018-09-14T02:55:34.378Z,54.50
2018-09-14T02:56:34.359Z,54.50
2018-09-14T02:57:34.392Z,54.60
2018-09-14T02:58:34.475Z,54.69
2018-09-14T02:59:34.496Z,54.50
2018-09-14T03:00:34.784Z,54.21
2018-09-14T03:01:34.565Z,53.92
2018-09-14T03:03:34.568Z,54.11
2018-09-14T03:04:34.601Z,54.50
2018-09-14T03:05:34.682Z,54.21
2018-09-14T03:06:34.711Z,54.50
2018-09-14T03:07:35.003Z,54.21
2018-09-14T03:09:34.806Z,54.02
2018-09-14T03:10:34.777Z,54.02
2018-09-14T03:11:34.858Z,54.21
2018-09-14T03:12:34.844Z,54.50
2018-09-14T03:13:34.941Z,54.31
2018-09-14T03:14:35.267Z,54.69
2018-09-14T03:15:34.991Z,53.92
2018-09-14T03:16:35.016Z,54.69
2018-09-14T03:17:34.995Z,54.40
2018-09-14T03:18:35.026Z,54.11
2018-09-14T03:19:35.049Z,53.99
2018-09-14T03:20:35.089Z,53.83
2018-09-14T03:21:35.420Z,53.83
2018-09-14T03:22:35.207Z,53.89
2018-09-14T03:23:35.224Z,54.47
2018-09-14T03:24:35.213Z,54.47
2018-09-14T03:25:35.241Z,54.60
2018-09-14T03:26:35.267Z,54.18
2018-09-14T03:27:35.349Z,54.57
2018-09-14T03:28:35.733Z,54.47
2018-09-14T03:29:35.423Z,54.47
2018-09-14T03:30:35.449Z,54.57
2018-09-14T03:31:35.471Z,54.50
2018-09-14T03:32:35.443Z,54.40
2018-09-14T03:33:35.531Z,54.50
2018-09-14T03:34:35.542Z,54.21
2018-09-14T03:35:35.839Z,54.57
2018-09-14T03:36:35.568Z,54.09
2018-09-14T03:37:35.651Z,54.18
2018-09-14T03:38:35.625Z,53.99
2018-09-14T03:39:35.727Z,53.99
2018-09-14T03:40:35.697Z,53.22
2018-09-14T03:41:35.717Z,53.99
2018-09-14T03:42:36.054Z,54.57
2018-09-14T03:43:35.828Z,54.47
2018-09-14T03:44:35.807Z,54.47
2018-09-14T03:45:35.890Z,54.28
2018-09-14T03:46:35.874Z,54.57
2018-09-14T03:47:35.902Z,54.18
2018-09-14T03:48:36.288Z,54.47
2018-09-14T03:49:35.969Z,54.38
2018-09-14T03:51:36.075Z,54.57
2018-09-14T03:52:36.051Z,54.38
2018-09-14T03:53:36.143Z,54.57
2018-09-14T03:54:36.416Z,54.66
2018-09-14T03:55:36.195Z,54.38
2018-09-14T03:56:36.219Z,54.57
2018-09-14T03:57:36.250Z,54.18
2018-09-14T03:58:36.388Z,53.89
2018-09-14T03:59:36.316Z,53.89
2018-09-14T04:00:36.590Z,54.18
2018-09-14T04:01:36.323Z,54.18
2018-09-14T04:02:36.351Z,54.18
2018-09-14T04:03:36.382Z,53.99
2018-09-14T04:04:36.475Z,54.47
2018-09-14T04:05:36.599Z,53.80
2018-09-14T04:06:36.530Z,54.57
2018-09-14T04:07:36.858Z,54.38
2018-09-14T04:08:36.535Z,54.38
2018-09-14T04:09:36.569Z,54.57
2018-09-14T04:10:36.662Z,54.38
2018-09-14T04:11:36.689Z,54.57
2018-09-14T04:12:36.652Z,54.66
2018-09-14T04:13:36.681Z,54.28
2018-09-14T04:14:37.013Z,54.57
2018-09-14T04:15:36.799Z,54.57
2018-09-14T04:16:36.823Z,54.38
2018-09-14T04:17:36.862Z,54.09
2018-09-14T04:18:36.833Z,54.57
2018-09-14T04:19:36.868Z,54.57
2018-09-14T04:20:36.951Z,54.09
2018-09-14T04:21:37.242Z,54.28
2018-09-14T04:22:36.953Z,54.18
2018-09-14T04:23:37.156Z,54.38
2018-09-14T04:24:37.021Z,54.47
2018-09-14T04:25:37.100Z,54.47
2018-09-14T04:26:37.124Z,54.66
2018-09-14T04:27:37.118Z,54.47
2018-09-14T04:28:37.436Z,54.28
2018-09-14T04:29:37.177Z,54.66
2018-09-14T04:30:37.196Z,54.47
2018-09-14T04:31:37.224Z,54.47
2018-09-14T04:32:37.269Z,54.47
2018-09-14T04:33:37.350Z,54.38
2018-09-14T04:34:37.319Z,54.38
2018-09-14T04:35:37.652Z,54.38
2018-09-14T04:36:37.384Z,54.66
2018-09-14T04:37:37.461Z,54.25
2018-09-14T04:38:37.462Z,54.47
2018-09-14T04:39:37.470Z,54.66
2018-09-14T04:40:37.556Z,54.38
2018-09-14T04:41:37.534Z,54.66
2018-09-14T04:42:37.861Z,54.47
2018-09-14T04:43:37.587Z,54.18
2018-09-14T04:44:37.614Z,54.44
2018-09-14T04:46:37.681Z,54.57
2018-09-14T04:47:37.754Z,54.47
2018-09-14T04:48:37.740Z,54.28
2018-09-14T04:49:38.067Z,53.99
2018-09-14T04:50:37.795Z,54.54
2018-09-14T04:51:37.878Z,54.54
2018-09-14T04:52:37.860Z,54.66
2018-09-14T04:53:37.956Z,54.54
2018-09-14T04:54:37.974Z,54.54
2018-09-14T04:55:37.945Z,54.47
2018-09-14T04:56:38.282Z,54.38
2018-09-14T04:57:38.068Z,54.47
2018-09-14T04:58:38.086Z,54.44
2018-09-14T04:59:38.120Z,54.44
2018-09-14T05:00:38.095Z,54.28
2018-09-14T05:01:38.127Z,54.57
2018-09-14T05:02:38.162Z,54.09
2018-09-14T05:03:38.536Z,54.44
2018-09-14T05:04:38.219Z,54.57
2018-09-14T05:05:38.297Z,54.64
2018-09-14T05:06:38.282Z,54.38
2018-09-14T05:07:38.339Z,54.44
2018-09-14T05:08:38.390Z,54.35
2018-09-14T05:09:38.370Z,54.35
2018-09-14T05:10:38.701Z,54.54
2018-09-14T05:11:38.431Z,54.54
2018-09-14T05:12:38.464Z,54.35
2018-09-14T05:13:38.543Z,54.25
2018-09-14T05:14:38.576Z,54.44
2018-09-14T05:15:38.601Z,54.54
2018-09-14T05:16:38.581Z,54.47
2018-09-14T05:17:39.061Z,54.35
2018-09-14T05:19:38.714Z,54.66
2018-09-14T05:20:38.701Z,54.18
2018-09-14T05:21:38.774Z,54.44
2018-09-14T05:22:38.755Z,54.25
2018-09-14T05:23:39.188Z,54.38
2018-09-14T05:24:39.128Z,54.66
2018-09-14T05:25:38.901Z,54.86
2018-09-14T05:26:38.875Z,54.25
2018-09-14T05:27:38.959Z,54.76
2018-09-14T05:28:38.945Z,54.47
2018-09-14T05:29:38.966Z,54.38
2018-09-14T05:30:39.052Z,54.38
2018-09-14T05:31:39.332Z,54.76
2018-09-14T05:32:39.064Z,54.38
2018-09-14T05:33:39.090Z,54.18
2018-09-14T05:34:39.172Z,54.66
2018-09-14T05:35:39.210Z,54.47
2018-09-14T05:36:39.178Z,54.38
2018-09-14T05:37:39.506Z,54.18
2018-09-14T05:38:39.241Z,54.57
2018-09-14T05:39:39.315Z,54.66
2018-09-14T05:40:39.309Z,54.38
2018-09-14T05:41:39.383Z,55.15
2018-09-14T05:42:39.359Z,54.86
2018-09-14T05:43:39.686Z,55.24
2018-09-14T05:44:39.473Z,55.24
2018-09-14T05:45:39.472Z,55.15
2018-09-14T05:46:39.525Z,55.15
2018-09-14T05:47:39.527Z,55.24
2018-09-14T05:49:39.564Z,55.15
2018-09-14T05:50:39.956Z,55.34
2018-09-14T05:51:39.679Z,55.05
2018-09-14T05:52:39.657Z,55.15
2018-09-14T05:53:39.684Z,55.05
2018-09-14T05:54:39.717Z,55.24
2018-09-14T05:55:39.807Z,54.96
2018-09-14T05:56:40.079Z,55.05
2018-09-14T05:57:39.857Z,54.76
2018-09-14T05:58:39.841Z,55.05
2018-09-14T05:59:39.871Z,55.34
2018-09-14T06:00:39.954Z,55.24
2018-09-14T06:01:39.978Z,55.24
2018-09-14T06:02:39.966Z,55.24
2018-09-14T06:03:40.286Z,54.96
2018-09-14T06:04:40.069Z,54.96
2018-09-14T06:05:40.051Z,54.96
2018-09-14T06:06:40.150Z,55.34
2018-09-14T06:07:40.112Z,55.05
2018-09-14T06:08:40.137Z,54.96
2018-09-14T06:09:40.170Z,55.05
2018-09-14T06:11:40.226Z,54.76
2018-09-14T06:12:40.308Z,54.96
2018-09-14T06:13:40.336Z,54.86
2018-09-14T06:14:40.376Z,54.96
2018-09-14T06:15:40.408Z,54.86
2018-09-14T06:16:40.684Z,55.24
2018-09-14T06:17:40.457Z,55.05
2018-09-14T06:18:40.494Z,54.79
2018-09-14T06:19:40.522Z,54.98
2018-09-14T06:20:41.021Z,54.88
2018-09-14T06:21:40.869Z,55.27
2018-09-14T06:22:41.352Z,55.27
2018-09-14T06:23:41.221Z,55.36
2018-09-14T06:24:40.929Z,54.98
2018-09-14T06:25:41.019Z,55.08
2018-09-14T06:26:40.785Z,55.18
2018-09-14T06:27:40.768Z,55.18
2018-09-14T06:28:40.798Z,55.36
2018-09-14T06:29:40.776Z,55.18
2018-09-14T06:30:41.103Z,55.27
2018-09-14T06:31:40.832Z,55.18
2018-09-14T06:32:40.910Z,55.27
2018-09-14T06:33:40.949Z,55.18
2018-09-14T06:34:40.928Z,55.08
2018-09-14T06:35:40.955Z,54.88
2018-09-14T06:37:41.063Z,55.08
2018-09-14T06:38:41.344Z,54.98
2018-09-14T06:39:41.203Z,54.79
2018-09-14T06:40:41.103Z,54.79
2018-09-14T06:41:41.144Z,55.08
2018-09-14T06:42:41.214Z,54.79
2018-09-14T06:43:41.242Z,54.69
2018-09-14T06:45:41.253Z,54.31
2018-09-14T06:46:41.593Z,54.50
2018-09-14T06:47:41.371Z,54.69
2018-09-14T06:48:41.394Z,54.69
2018-09-14T06:49:41.432Z,53.85
2018-09-14T06:50:41.410Z,54.79
2018-09-14T06:51:41.435Z,54.50
2018-09-14T06:52:41.519Z,54.69
2018-09-14T06:53:41.805Z,54.60
2018-09-14T06:54:41.527Z,54.53
2018-09-14T06:55:41.612Z,54.40
2018-09-14T06:56:41.593Z,54.40
2018-09-14T06:57:41.623Z,54.40
2018-09-14T06:58:41.707Z,54.60
2018-09-14T06:59:41.740Z,54.69
2018-09-14T07:00:42.010Z,54.79
2018-09-14T07:01:41.747Z,54.60
2018-09-14T07:02:41.776Z,54.21
2018-09-14T07:03:41.856Z,54.31
2018-09-14T07:05:41.922Z,54.98
2018-09-14T07:06:41.897Z,55.36
2018-09-14T07:07:42.227Z,55.66
2018-09-14T07:08:42.006Z,55.27
2018-09-14T07:09:42.039Z,55.66
2018-09-14T07:10:42.071Z,56.24
2018-09-14T07:11:42.101Z,56.14
2018-09-14T07:12:42.073Z,56.14
2018-09-14T07:13:42.169Z,55.94
2018-09-14T07:14:42.441Z,55.88
2018-09-14T07:15:42.240Z,55.59
2018-09-14T07:16:42.197Z,55.59
2018-09-14T07:17:42.286Z,55.40
2018-09-14T07:18:42.258Z,55.59
2018-09-14T07:19:42.292Z,55.40
2018-09-14T07:20:42.372Z,55.13
2018-09-14T07:21:42.703Z,55.04
2018-09-14T07:22:42.439Z,55.01
2018-09-14T07:23:42.413Z,55.10
2018-09-14T07:24:42.598Z,55.23
2018-09-14T07:25:42.554Z,55.33
2018-09-14T07:26:42.569Z,55.04
2018-09-14T07:27:42.620Z,54.75
2018-09-14T07:28:42.909Z,54.84
2018-09-14T07:29:42.653Z,54.65
2018-09-14T07:30:42.626Z,54.46
2018-09-14T07:31:42.912Z,54.46
2018-09-14T07:32:42.686Z,54.46
2018-09-14T07:33:42.738Z,54.46
2018-09-14T07:34:42.808Z,54.27
2018-09-14T07:35:42.829Z,53.88
2018-09-14T07:36:42.806Z,53.97
2018-09-14T07:37:42.887Z,54.07
2018-09-14T07:38:42.878Z,54.19
2018-09-14T07:39:42.902Z,54.29
2018-09-14T07:40:42.982Z,53.71
2018-09-14T07:41:43.260Z,53.71
2018-09-14T07:42:43.000Z,53.71
2018-09-14T07:43:43.053Z,53.61
2018-09-14T07:44:43.051Z,54.10
2018-09-14T07:45:43.140Z,54.10
2018-09-14T07:46:43.163Z,53.61
2018-09-14T07:47:43.445Z,53.61
2018-09-14T07:48:43.206Z,53.42
2018-09-14T07:49:43.210Z,53.42
2018-09-14T07:50:43.319Z,53.33
2018-09-14T07:51:43.274Z,53.03
2018-09-14T07:52:43.297Z,53.13
2018-09-14T07:53:43.638Z,53.03
2018-09-14T07:54:43.360Z,53.03
2018-09-14T07:55:43.447Z,53.03
2018-09-14T07:56:43.428Z,53.23
2018-09-14T07:57:43.502Z,53.23
2018-09-14T07:58:43.538Z,53.33
2018-09-14T07:59:43.570Z,53.13
2018-09-14T08:00:43.552Z,52.94
2018-09-14T08:01:43.633Z,52.94
2018-09-14T08:02:43.606Z,52.48
2018-09-14T08:03:43.686Z,52.84
2018-09-14T08:04:43.667Z,53.06
2018-09-14T08:06:43.786Z,52.87
2018-09-14T08:07:43.820Z,52.97
2018-09-14T08:08:43.795Z,53.25
2018-09-14T08:09:43.827Z,52.87
2018-09-14T08:10:43.862Z,52.77
2018-09-14T08:11:44.215Z,52.87
2018-09-14T08:12:43.972Z,52.97
2018-09-14T08:13:43.949Z,52.97
2018-09-14T08:14:43.980Z,52.67
2018-09-14T08:15:44.008Z,53.06
2018-09-14T08:16:44.094Z,52.67
2018-09-14T08:17:44.130Z,52.67
2018-09-14T08:18:44.413Z,52.58
2018-09-14T08:19:44.198Z,52.67
2018-09-14T08:20:44.170Z,52.48
2018-09-14T08:21:44.456Z,52.48
2018-09-14T08:22:44.281Z,52.67
2018-09-14T08:23:44.317Z,52.58
2018-09-14T08:24:44.342Z,52.77
2018-09-14T08:26:44.410Z,52.67
2018-09-14T08:27:44.384Z,52.61
2018-09-14T08:28:44.414Z,52.67
2018-09-14T08:29:44.495Z,52.29
2018-09-14T08:30:44.527Z,52.29
2018-09-14T08:31:44.562Z,52.39
2018-09-14T08:32:44.539Z,52.31
2018-09-14T08:33:44.574Z,52.41
2018-09-14T08:34:44.658Z,52.48
2018-09-14T08:35:44.641Z,52.22
2018-09-14T08:36:44.963Z,52.70
2018-09-14T08:37:44.701Z,52.51
2018-09-14T08:38:44.730Z,52.22
2018-09-14T08:39:44.761Z,52.31
2018-09-14T08:40:44.787Z,52.22
2018-09-14T08:41:44.875Z,52.31
2018-09-14T08:42:44.864Z,52.31
2018-09-14T08:43:45.185Z,52.02
2018-09-14T08:44:44.919Z,52.31
2018-09-14T08:45:45.299Z,52.12
2018-09-14T08:46:45.033Z,52.41
2018-09-14T08:47:45.119Z,52.22
2018-09-14T08:48:45.038Z,51.71
2018-09-14T08:49:45.074Z,51.73
2018-09-14T08:50:45.459Z,51.73
2018-09-14T08:51:45.140Z,51.64
2018-09-14T08:52:45.212Z,51.54
2018-09-14T08:53:45.274Z,51.64
2018-09-14T08:54:45.281Z,51.54
2018-09-14T08:55:45.309Z,51.73
2018-09-14T08:56:45.343Z,51.73
2018-09-14T08:57:45.626Z,51.35
2018-09-14T08:58:45.405Z,51.64
2018-09-14T09:00:45.531Z,51.64
2018-09-14T09:01:45.466Z,51.54
2018-09-14T09:02:45.476Z,51.44
2018-09-14T09:03:45.572Z,51.25
2018-09-14T09:04:45.853Z,51.44
2018-09-14T09:05:45.622Z,51.44
2018-09-14T09:06:45.606Z,51.35
2018-09-14T09:07:45.638Z,51.25
2018-09-14T09:08:45.720Z,51.25
2018-09-14T09:09:45.698Z,51.54
2018-09-14T09:10:45.789Z,51.25
2018-09-14T09:11:46.058Z,51.54
2018-09-14T09:12:45.792Z,51.25
2018-09-14T09:13:45.881Z,51.25
2018-09-14T09:14:45.861Z,51.47
2018-09-14T09:15:45.943Z,51.15
2018-09-14T09:16:45.918Z,51.25
2018-09-14T09:17:46.072Z,51.35
2018-09-14T09:18:46.297Z,51.25
2018-09-14T09:19:46.079Z,51.44
2018-09-14T09:21:46.127Z,51.28
2018-09-14T09:22:46.155Z,51.54
2018-09-14T09:23:46.190Z,51.44
2018-09-14T09:24:46.199Z,50.79
2018-09-14T09:26:46.532Z,50.76
2018-09-14T09:27:46.263Z,50.98
2018-09-14T09:28:46.350Z,50.48
2018-09-14T09:29:46.381Z,50.48
2018-09-14T09:31:46.392Z,50.76
2018-09-14T09:32:46.418Z,50.70
2018-09-14T09:34:46.791Z,50.86
2018-09-14T09:35:46.569Z,51.08
2018-09-14T09:36:46.553Z,51.08
2018-09-14T09:37:46.589Z,50.70
2018-09-14T09:38:46.670Z,50.70
2018-09-14T09:39:46.697Z,50.50
2018-09-14T09:40:46.674Z,50.60
2018-09-14T09:41:47.012Z,51.18
2018-09-14T09:42:46.738Z,51.08
2018-09-14T09:43:46.836Z,50.98
2018-09-14T09:44:46.856Z,50.98
2018-09-14T09:45:46.887Z,50.79
2018-09-14T09:46:46.865Z,50.50
2018-09-14T09:47:46.943Z,50.40
2018-09-14T09:48:47.228Z,50.31
2018-09-14T09:49:47.007Z,50.60
2018-09-14T09:50:47.060Z,50.60
2018-09-14T09:51:47.074Z,50.50
2018-09-14T09:52:47.057Z,50.40
2018-09-14T09:53:47.139Z,50.31
2018-09-14T09:54:47.119Z,50.31
2018-09-14T09:55:47.453Z,50.31
2018-09-14T09:56:47.750Z,50.40
2018-09-14T09:57:47.526Z,50.12
2018-09-14T09:58:47.598Z,50.31
2018-09-14T09:59:47.716Z,50.70
2018-09-14T10:00:47.495Z,50.31
2018-09-14T10:01:47.795Z,50.50
2018-09-14T10:02:47.677Z,50.12
2018-09-14T10:03:47.513Z,50.02
2018-09-14T10:04:47.484Z,50.12
2018-09-14T10:05:47.529Z,50.21
2018-09-14T10:06:47.498Z,50.21
2018-09-14T10:07:47.531Z,50.21
2018-09-14T10:08:47.568Z,49.73
2018-09-14T10:09:47.896Z,50.31
2018-09-14T10:10:47.679Z,50.31
2018-09-14T10:11:47.905Z,50.21
2018-09-14T10:12:47.750Z,49.82
2018-09-14T10:13:48.040Z,49.73
2018-09-14T10:14:47.809Z,50.31
2018-09-14T10:15:47.887Z,49.73
2018-09-14T10:16:48.119Z,49.73
2018-09-14T10:17:47.907Z,49.82
2018-09-14T10:18:47.880Z,49.73
2018-09-14T10:19:47.965Z,49.73
2018-09-14T10:20:47.981Z,49.73
2018-09-14T10:21:48.115Z,49.73
2018-09-14T10:22:48.063Z,49.44
2018-09-14T10:23:48.340Z,49.63
2018-09-14T10:24:48.126Z,49.63
2018-09-14T10:25:48.110Z,49.92
2018-09-14T10:26:48.206Z,49.82
2018-09-14T10:27:48.172Z,49.82
2018-09-14T10:28:48.330Z,49.82
2018-09-14T10:29:48.234Z,49.73
2018-09-14T10:30:48.570Z,49.82
2018-09-14T10:31:48.348Z,49.82
2018-09-14T10:32:48.338Z,49.82
2018-09-14T10:33:48.424Z,50.04
2018-09-14T10:34:48.447Z,49.92
2018-09-14T10:35:48.476Z,49.73
2018-09-14T10:36:48.463Z,49.63
2018-09-14T10:37:48.799Z,49.85
2018-09-14T10:38:48.530Z,49.75
2018-09-14T10:39:48.605Z,49.63
2018-09-14T10:40:48.678Z,49.37
2018-09-14T10:41:48.672Z,49.27
2018-09-14T10:42:48.717Z,49.56
2018-09-14T10:43:48.687Z,49.44
2018-09-14T10:44:49.027Z,49.27
2018-09-14T10:45:48.756Z,49.56
2018-09-14T10:46:48.837Z,49.56
2018-09-14T10:47:48.811Z,49.75
2018-09-14T10:48:48.948Z,49.85
2018-09-14T10:49:48.926Z,49.27
2018-09-14T10:50:48.958Z,49.17
2018-09-14T10:51:49.254Z,49.17
2018-09-14T10:52:48.981Z,49.17
2018-09-14T10:53:49.058Z,49.17
2018-09-14T10:54:49.047Z,48.88
2018-09-14T10:55:49.083Z,48.97
2018-09-14T10:56:49.156Z,48.79
2018-09-14T10:57:49.141Z,49.07
2018-09-14T10:58:49.474Z,48.97
2018-09-14T10:59:49.251Z,48.88
2018-09-14T11:00:49.243Z,48.69
2018-09-14T11:01:49.271Z,48.88
2018-09-14T11:02:49.305Z,48.79
2018-09-14T11:03:49.430Z,48.79
2018-09-14T11:04:49.669Z,48.79
2018-09-14T11:05:49.452Z,48.79
2018-09-14T11:06:49.522Z,48.59
2018-09-14T11:07:49.520Z,48.79
2018-09-14T11:08:49.500Z,48.61
2018-09-14T11:09:49.541Z,48.90
2018-09-14T11:10:50.694Z,48.81
2018-09-14T11:11:49.931Z,48.79
2018-09-14T11:12:50.023Z,48.81
2018-09-14T11:13:50.152Z,48.90
2018-09-14T11:14:50.338Z,48.81
2018-09-14T11:15:49.785Z,48.90
2018-09-14T11:17:50.101Z,48.49
2018-09-14T11:18:49.858Z,48.81
2018-09-14T11:19:49.914Z,48.71
2018-09-14T11:20:49.892Z,48.81
2018-09-14T11:21:49.920Z,48.81
2018-09-14T11:22:50.005Z,48.90
2018-09-14T11:23:50.295Z,48.90
2018-09-14T11:24:50.274Z,49.00
2018-09-14T11:25:50.055Z,48.42
2018-09-14T11:26:50.141Z,49.00
2018-09-14T11:27:50.176Z,48.61
2018-09-14T11:28:50.161Z,48.52
2018-09-14T11:29:50.239Z,48.42
2018-09-14T11:30:50.521Z,48.52
2018-09-14T11:31:50.306Z,48.52
2018-09-14T11:32:50.284Z,48.52
2018-09-14T11:33:50.369Z,48.52
2018-09-14T11:34:50.403Z,48.61
2018-09-14T11:35:50.410Z,48.61
2018-09-14T11:36:50.468Z,48.61
2018-09-14T11:37:50.783Z,48.42
2018-09-14T11:38:50.482Z,48.81
2018-09-14T11:39:50.566Z,48.42
2018-09-14T11:40:50.593Z,48.32
2018-09-14T11:41:50.632Z,48.32
2018-09-14T11:42:50.664Z,48.32
2018-09-14T11:43:50.732Z,48.42
2018-09-14T11:44:50.990Z,48.42
2018-09-14T11:45:50.803Z,48.22
2018-09-14T11:46:50.755Z,48.22
2018-09-14T11:47:50.774Z,48.22
2018-09-14T11:48:50.863Z,48.22
2018-09-14T11:50:50.926Z,48.22
2018-09-14T11:51:51.209Z,48.13
2018-09-14T11:52:50.951Z,47.94
2018-09-14T11:53:50.975Z,47.84
2018-09-14T11:54:51.012Z,48.03
2018-09-14T11:55:51.046Z,47.64
2018-09-14T11:56:51.078Z,47.94
2018-09-14T11:57:51.156Z,47.94
2018-09-14T11:58:51.440Z,47.94
2018-09-14T11:59:51.179Z,47.94
2018-09-14T12:00:51.261Z,47.84
2018-09-14T12:01:51.293Z,47.84
2018-09-14T12:02:51.330Z,47.74
2018-09-14T12:03:51.747Z,47.84
2018-09-14T12:04:51.376Z,47.84
2018-09-14T12:05:51.674Z,47.84
2018-09-14T12:06:51.488Z,47.94
2018-09-14T12:07:51.493Z,47.74
2018-09-14T12:08:51.481Z,47.94
2018-09-14T12:09:51.505Z,47.74
2018-09-14T12:10:51.541Z,47.74
2018-09-14T12:11:51.630Z,47.74
2018-09-14T12:12:51.904Z,47.94
2018-09-14T12:13:51.732Z,47.74
2018-09-14T12:14:51.675Z,47.74
2018-09-14T12:15:51.811Z,47.74
2018-09-14T12:16:51.744Z,47.74
2018-09-14T12:17:51.773Z,47.84
2018-09-14T12:18:51.860Z,47.74
2018-09-14T12:19:51.893Z,47.74
2018-09-14T12:20:51.962Z,47.74
2018-09-14T12:21:51.953Z,47.94
2018-09-14T12:22:51.948Z,47.84
2018-09-14T12:23:52.021Z,47.94
2018-09-14T12:24:52.006Z,47.94
2018-09-14T12:25:52.336Z,47.94
2018-09-14T12:26:52.123Z,48.22
2018-09-14T12:27:52.101Z,47.84
2018-09-14T12:28:52.189Z,47.94
2018-09-14T12:29:52.224Z,47.86
2018-09-14T12:30:52.207Z,47.94
2018-09-14T12:31:52.548Z,47.86
2018-09-14T12:32:52.332Z,47.94
2018-09-14T12:33:52.358Z,47.96
2018-09-14T12:34:52.341Z,48.06
2018-09-14T12:35:52.424Z,47.96
2018-09-14T12:36:52.402Z,48.03
2018-09-14T12:37:52.790Z,48.15
2018-09-14T12:38:52.523Z,48.13
2018-09-14T12:39:52.551Z,48.06
2018-09-14T12:40:52.540Z,48.15
2018-09-14T12:41:52.572Z,48.25
2018-09-14T12:42:52.660Z,48.25
2018-09-14T12:43:52.939Z,48.15
2018-09-14T12:44:52.728Z,48.35
2018-09-14T12:45:52.710Z,48.15
2018-09-14T12:46:52.801Z,47.86
2018-09-14T12:47:52.828Z,47.96
2018-09-14T12:48:52.850Z,47.96
2018-09-14T12:49:52.896Z,47.96
2018-09-14T12:50:53.171Z,47.57
2018-09-14T12:51:52.902Z,47.77
2018-09-14T12:52:52.989Z,47.77
2018-09-14T12:53:53.026Z,47.67
2018-09-14T12:54:53.008Z,47.67
2018-09-14T12:55:53.064Z,47.67
2018-09-14T12:56:53.122Z,47.77
2018-09-14T12:57:53.403Z,47.77
2018-09-14T12:58:53.188Z,47.77
2018-09-14T12:59:53.232Z,47.77
2018-09-14T13:00:53.264Z,47.77
2018-09-14T13:01:53.295Z,47.77
2018-09-14T13:02:53.298Z,47.77
2018-09-14T13:03:53.414Z,47.77
2018-09-14T13:04:53.646Z,47.77
2018-09-14T13:05:53.431Z,47.67
2018-09-14T13:06:53.405Z,47.67
2018-09-14T13:07:53.495Z,47.09
2018-09-14T13:08:53.481Z,47.38
2018-09-14T13:09:53.561Z,47.28
2018-09-14T13:10:53.555Z,47.38
2018-09-14T13:11:53.624Z,47.38
2018-09-14T13:12:53.613Z,47.38
2018-09-14T13:13:53.642Z,47.28
2018-09-14T13:14:53.782Z,47.28